sensor_id;sensor_type;location;lat;lon;timestamp;temperature;humidity
14873;DHT22;7528;48.576;19.122;2023-06-14T00:01:17;16.80;70.70
14873;DHT22;7528;48.576;19.122;2023-06-14T00:06:21;16.70;71.00
14873;DHT22;7528;48.576;19.122;2023-06-14T00:11:27;16.50;71.40
14873;DHT22;7528;48.576;19.122;2023-06-14T00:16:30;16.50;71.50
14873;DHT22;7528;48.576;19.122;2023-06-14T00:21:33;16.40;71.50
14873;DHT22;7528;48.576;19.122;2023-06-14T00:26:37;16.40;71.60
14873;DHT22;7528;48.576;19.122;2023-06-14T00:31:40;16.30;71.50
14873;DHT22;7528;48.576;19.122;2023-06-14T00:36:43;16.30;71.90
14873;DHT22;7528;48.576;19.122;2023-06-14T00:41:46;16.20;72.00
14873;DHT22;7528;48.576;19.122;2023-06-14T00:46:49;16.10;72.10
14873;DHT22;7528;48.576;19.122;2023-06-14T00:51:52;16.10;72.20
14873;DHT22;7528;48.576;19.122;2023-06-14T00:56:56;16.00;72.40
14873;DHT22;7528;48.576;19.122;2023-06-14T01:01:58;16.00;72.70
14873;DHT22;7528;48.576;19.122;2023-06-14T01:07:05;15.90;73.00
14873;DHT22;7528;48.576;19.122;2023-06-14T01:12:31;15.80;73.20
14873;DHT22;7528;48.576;19.122;2023-06-14T01:17:38;15.80;74.10
14873;DHT22;7528;48.576;19.122;2023-06-14T01:22:51;15.70;73.00
14873;DHT22;7528;48.576;19.122;2023-06-14T01:27:56;15.70;73.30
14873;DHT22;7528;48.576;19.122;2023-06-14T01:33:01;15.70;73.20
14873;DHT22;7528;48.576;19.122;2023-06-14T01:38:08;15.60;73.20
14873;DHT22;7528;48.576;19.122;2023-06-14T01:43:12;15.50;73.00
14873;DHT22;7528;48.576;19.122;2023-06-14T01:48:15;15.50;73.20
14873;DHT22;7528;48.576;19.122;2023-06-14T01:53:20;15.40;73.30
14873;DHT22;7528;48.576;19.122;2023-06-14T01:58:23;15.40;73.50
14873;DHT22;7528;48.576;19.122;2023-06-14T02:03:27;15.30;74.10
14873;DHT22;7528;48.576;19.122;2023-06-14T02:08:31;15.30;73.30
14873;DHT22;7528;48.576;19.122;2023-06-14T02:13:35;15.20;73.60
14873;DHT22;7528;48.576;19.122;2023-06-14T02:18:38;15.20;73.80
14873;DHT22;7528;48.576;19.122;2023-06-14T02:23:41;15.10;74.00
14873;DHT22;7528;48.576;19.122;2023-06-14T02:28:44;15.00;74.10
14873;DHT22;7528;48.576;19.122;2023-06-14T02:33:46;14.90;74.00
14873;DHT22;7528;48.576;19.122;2023-06-14T02:38:50;14.90;74.30
14873;DHT22;7528;48.576;19.122;2023-06-14T02:43:55;14.90;74.20
14873;DHT22;7528;48.576;19.122;2023-06-14T02:48:59;14.80;74.30
14873;DHT22;7528;48.576;19.122;2023-06-14T02:54:03;14.80;74.40
14873;DHT22;7528;48.576;19.122;2023-06-14T02:59:06;14.80;74.40
14873;DHT22;7528;48.576;19.122;2023-06-14T03:04:11;14.70;74.70
14873;DHT22;7528;48.576;19.122;2023-06-14T03:09:16;14.70;74.80
14873;DHT22;7528;48.576;19.122;2023-06-14T03:14:21;14.70;74.90
14873;DHT22;7528;48.576;19.122;2023-06-14T03:19:23;14.60;75.10
14873;DHT22;7528;48.576;19.122;2023-06-14T03:24:30;14.70;75.00
14873;DHT22;7528;48.576;19.122;2023-06-14T03:29:42;14.70;74.90
14873;DHT22;7528;48.576;19.122;2023-06-14T03:34:46;14.70;75.00
14873;DHT22;7528;48.576;19.122;2023-06-14T03:39:55;14.70;75.20
14873;DHT22;7528;48.576;19.122;2023-06-14T03:44:59;14.70;75.30
14873;DHT22;7528;48.576;19.122;2023-06-14T03:50:03;14.70;75.20
14873;DHT22;7528;48.576;19.122;2023-06-14T03:55:09;14.70;75.70
14873;DHT22;7528;48.576;19.122;2023-06-14T04:00:13;14.60;76.10
14873;DHT22;7528;48.576;19.122;2023-06-14T04:05:16;14.60;76.60
14873;DHT22;7528;48.576;19.122;2023-06-14T04:10:25;14.60;77.00
14873;DHT22;7528;48.576;19.122;2023-06-14T04:15:27;14.70;77.50
14873;DHT22;7528;48.576;19.122;2023-06-14T04:20:32;14.90;77.60
14873;DHT22;7528;48.576;19.122;2023-06-14T04:25:36;15.00;77.70
14873;DHT22;7528;48.576;19.122;2023-06-14T04:30:39;15.00;78.00
14873;DHT22;7528;48.576;19.122;2023-06-14T04:35:44;15.00;78.60
14873;DHT22;7528;48.576;19.122;2023-06-14T04:40:50;14.90;80.30
14873;DHT22;7528;48.576;19.122;2023-06-14T04:45:54;14.90;80.20
14873;DHT22;7528;48.576;19.122;2023-06-14T04:50:57;14.90;80.90
14873;DHT22;7528;48.576;19.122;2023-06-14T04:56:02;14.90;81.40
14873;DHT22;7528;48.576;19.122;2023-06-14T05:01:06;14.90;81.70
14873;DHT22;7528;48.576;19.122;2023-06-14T05:06:10;14.90;81.80
14873;DHT22;7528;48.576;19.122;2023-06-14T05:11:15;14.90;82.20
14873;DHT22;7528;48.576;19.122;2023-06-14T05:16:18;15.00;81.90
14873;DHT22;7528;48.576;19.122;2023-06-14T05:21:23;15.10;81.20
14873;DHT22;7528;48.576;19.122;2023-06-14T05:26:27;15.20;80.90
14873;DHT22;7528;48.576;19.122;2023-06-14T05:31:31;15.40;81.20
14873;DHT22;7528;48.576;19.122;2023-06-14T05:36:33;15.50;79.80
14873;DHT22;7528;48.576;19.122;2023-06-14T05:41:39;15.50;80.40
14873;DHT22;7528;48.576;19.122;2023-06-14T05:46:41;15.60;80.80
14873;DHT22;7528;48.576;19.122;2023-06-14T05:51:44;15.70;81.30
14873;DHT22;7528;48.576;19.122;2023-06-14T05:56:48;15.80;81.40
14873;DHT22;7528;48.576;19.122;2023-06-14T06:01:50;15.80;80.80
14873;DHT22;7528;48.576;19.122;2023-06-14T06:06:53;16.00;81.00
14873;DHT22;7528;48.576;19.122;2023-06-14T06:11:57;16.10;81.00
14873;DHT22;7528;48.576;19.122;2023-06-14T06:16:59;16.20;81.30
14873;DHT22;7528;48.576;19.122;2023-06-14T06:22:02;16.30;80.40
14873;DHT22;7528;48.576;19.122;2023-06-14T06:27:07;16.50;81.30
14873;DHT22;7528;48.576;19.122;2023-06-14T06:32:10;16.70;79.10
14873;DHT22;7528;48.576;19.122;2023-06-14T06:37:12;16.80;78.10
14873;DHT22;7528;48.576;19.122;2023-06-14T06:42:16;17.00;76.70
14873;DHT22;7528;48.576;19.122;2023-06-14T06:47:19;17.20;76.40
14873;DHT22;7528;48.576;19.122;2023-06-14T06:52:22;17.40;75.00
14873;DHT22;7528;48.576;19.122;2023-06-14T06:57:25;17.50;75.10
14873;DHT22;7528;48.576;19.122;2023-06-14T07:02:29;17.70;75.30
14873;DHT22;7528;48.576;19.122;2023-06-14T07:07:32;17.90;74.50
14873;DHT22;7528;48.576;19.122;2023-06-14T07:12:36;18.10;74.30
14873;DHT22;7528;48.576;19.122;2023-06-14T07:17:40;18.30;71.60
14873;DHT22;7528;48.576;19.122;2023-06-14T07:22:43;18.50;71.80
14873;DHT22;7528;48.576;19.122;2023-06-14T07:27:47;18.60;72.40
14873;DHT22;7528;48.576;19.122;2023-06-14T07:32:49;18.80;71.90
14873;DHT22;7528;48.576;19.122;2023-06-14T07:37:52;19.00;69.50
14873;DHT22;7528;48.576;19.122;2023-06-14T07:42:56;19.20;67.40
14873;DHT22;7528;48.576;19.122;2023-06-14T07:47:58;19.30;66.50
14873;DHT22;7528;48.576;19.122;2023-06-14T07:53:01;19.50;66.70
14873;DHT22;7528;48.576;19.122;2023-06-14T07:58:05;19.70;67.30
14873;DHT22;7528;48.576;19.122;2023-06-14T08:03:08;19.90;63.10
14873;DHT22;7528;48.576;19.122;2023-06-14T08:08:11;20.10;64.80
14873;DHT22;7528;48.576;19.122;2023-06-14T08:18:21;20.30;62.40
14873;DHT22;7528;48.576;19.122;2023-06-14T08:23:23;20.50;63.80
14873;DHT22;7528;48.576;19.122;2023-06-14T08:28:25;20.70;61.80
14873;DHT22;7528;48.576;19.122;2023-06-14T08:33:29;20.80;61.60
14873;DHT22;7528;48.576;19.122;2023-06-14T08:38:33;21.00;60.00
14873;DHT22;7528;48.576;19.122;2023-06-14T08:43:36;21.40;58.70
14873;DHT22;7528;48.576;19.122;2023-06-14T08:48:40;21.60;59.00
14873;DHT22;7528;48.576;19.122;2023-06-14T08:53:43;21.70;55.50
14873;DHT22;7528;48.576;19.122;2023-06-14T08:58:47;21.90;57.20
14873;DHT22;7528;48.576;19.122;2023-06-14T09:03:52;22.20;57.40
14873;DHT22;7528;48.576;19.122;2023-06-14T09:08:55;22.40;55.30
14873;DHT22;7528;48.576;19.122;2023-06-14T09:13:58;22.60;53.30
14873;DHT22;7528;48.576;19.122;2023-06-14T09:19:02;22.90;52.10
14873;DHT22;7528;48.576;19.122;2023-06-14T09:24:05;22.90;51.50
14873;DHT22;7528;48.576;19.122;2023-06-14T09:29:09;23.00;49.40
14873;DHT22;7528;48.576;19.122;2023-06-14T09:34:13;23.20;48.90
14873;DHT22;7528;48.576;19.122;2023-06-14T09:39:19;23.60;49.40
14873;DHT22;7528;48.576;19.122;2023-06-14T09:44:21;23.80;45.80
14873;DHT22;7528;48.576;19.122;2023-06-14T09:49:27;23.80;45.70
14873;DHT22;7528;48.576;19.122;2023-06-14T09:54:30;24.00;46.10
14873;DHT22;7528;48.576;19.122;2023-06-14T09:59:34;24.20;45.90
14873;DHT22;7528;48.576;19.122;2023-06-14T10:04:40;24.10;46.80
14873;DHT22;7528;48.576;19.122;2023-06-14T10:09:47;24.40;45.10
14873;DHT22;7528;48.576;19.122;2023-06-14T10:14:51;24.70;45.60
14873;DHT22;7528;48.576;19.122;2023-06-14T10:20:06;24.90;43.30
14873;DHT22;7528;48.576;19.122;2023-06-14T10:25:13;25.20;44.10
14873;DHT22;7528;48.576;19.122;2023-06-14T10:30:27;25.20;45.50
14873;DHT22;7528;48.576;19.122;2023-06-14T10:35:31;25.20;44.80
14873;DHT22;7528;48.576;19.122;2023-06-14T10:40:34;25.20;46.40
14873;DHT22;7528;48.576;19.122;2023-06-14T10:46:16;24.80;45.70
14873;DHT22;7528;48.576;19.122;2023-06-14T10:51:21;24.40;45.40
14873;DHT22;7528;48.576;19.122;2023-06-14T10:56:26;24.50;45.60
14873;DHT22;7528;48.576;19.122;2023-06-14T11:01:35;24.60;45.00
14873;DHT22;7528;48.576;19.122;2023-06-14T11:06:46;24.80;43.20
14873;DHT22;7528;48.576;19.122;2023-06-14T11:11:49;24.70;44.10
14873;DHT22;7528;48.576;19.122;2023-06-14T11:16:53;24.70;43.60
14873;DHT22;7528;48.576;19.122;2023-06-14T11:21:57;24.90;43.80
14873;DHT22;7528;48.576;19.122;2023-06-14T11:26:59;25.00;43.40
14873;DHT22;7528;48.576;19.122;2023-06-14T11:32:01;24.90;42.80
14873;DHT22;7528;48.576;19.122;2023-06-14T11:37:06;24.70;43.00
14873;DHT22;7528;48.576;19.122;2023-06-14T11:42:08;24.70;43.50
14873;DHT22;7528;48.576;19.122;2023-06-14T11:47:15;24.70;43.40
14873;DHT22;7528;48.576;19.122;2023-06-14T11:52:19;24.30;43.50
14873;DHT22;7528;48.576;19.122;2023-06-14T11:57:21;24.30;43.50
14873;DHT22;7528;48.576;19.122;2023-06-14T12:02:24;24.30;45.80
14873;DHT22;7528;48.576;19.122;2023-06-14T12:07:30;24.40;44.40
14873;DHT22;7528;48.576;19.122;2023-06-14T12:12:35;24.50;43.70
14873;DHT22;7528;48.576;19.122;2023-06-14T12:17:38;24.60;47.30
14873;DHT22;7528;48.576;19.122;2023-06-14T12:22:52;24.50;46.60
14873;DHT22;7528;48.576;19.122;2023-06-14T12:27:55;24.60;46.00
14873;DHT22;7528;48.576;19.122;2023-06-14T12:32:57;24.90;44.40
14873;DHT22;7528;48.576;19.122;2023-06-14T12:38:01;25.00;44.70
14873;DHT22;7528;48.576;19.122;2023-06-14T12:43:04;25.00;42.40
14873;DHT22;7528;48.576;19.122;2023-06-14T12:48:07;25.10;46.10
14873;DHT22;7528;48.576;19.122;2023-06-14T12:53:11;24.90;43.50
14873;DHT22;7528;48.576;19.122;2023-06-14T12:58:13;24.70;42.70
14873;DHT22;7528;48.576;19.122;2023-06-14T13:03:18;24.50;43.70
14873;DHT22;7528;48.576;19.122;2023-06-14T13:08:21;24.30;45.00
14873;DHT22;7528;48.576;19.122;2023-06-14T13:13:24;24.30;45.40
14873;DHT22;7528;48.576;19.122;2023-06-14T13:18:27;24.30;47.00
14873;DHT22;7528;48.576;19.122;2023-06-14T13:23:30;24.30;50.30
14873;DHT22;7528;48.576;19.122;2023-06-14T13:28:33;24.20;53.20
14873;DHT22;7528;48.576;19.122;2023-06-14T13:33:36;24.30;58.10
14873;DHT22;7528;48.576;19.122;2023-06-14T13:38:40;24.20;60.10
14873;DHT22;7528;48.576;19.122;2023-06-14T13:43:42;24.10;60.60
14873;DHT22;7528;48.576;19.122;2023-06-14T13:48:45;24.00;61.30
14873;DHT22;7528;48.576;19.122;2023-06-14T13:53:50;23.80;61.60
14873;DHT22;7528;48.576;19.122;2023-06-14T13:58:52;23.70;61.10
14873;DHT22;7528;48.576;19.122;2023-06-14T14:03:54;23.50;61.00
14873;DHT22;7528;48.576;19.122;2023-06-14T14:08:58;23.30;62.80
14873;DHT22;7528;48.576;19.122;2023-06-14T14:14:01;23.10;62.90
14873;DHT22;7528;48.576;19.122;2023-06-14T14:19:07;23.00;65.30
14873;DHT22;7528;48.576;19.122;2023-06-14T14:24:10;22.90;65.80
14873;DHT22;7528;48.576;19.122;2023-06-14T14:29:13;22.70;66.40
14873;DHT22;7528;48.576;19.122;2023-06-14T14:39:36;22.90;66.70
14873;DHT22;7528;48.576;19.122;2023-06-14T14:44:39;23.20;61.10
14873;DHT22;7528;48.576;19.122;2023-06-14T14:49:42;23.40;61.50
14873;DHT22;7528;48.576;19.122;2023-06-14T14:54:45;23.50;58.20
14873;DHT22;7528;48.576;19.122;2023-06-14T14:59:48;23.50;56.50
14873;DHT22;7528;48.576;19.122;2023-06-14T15:04:50;23.50;56.00
14873;DHT22;7528;48.576;19.122;2023-06-14T15:09:54;23.50;51.80
14873;DHT22;7528;48.576;19.122;2023-06-14T15:14:57;23.40;53.80
14873;DHT22;7528;48.576;19.122;2023-06-14T15:19:59;23.40;56.60
14873;DHT22;7528;48.576;19.122;2023-06-14T15:25:04;23.10;57.50
14873;DHT22;7528;48.576;19.122;2023-06-14T15:30:07;23.20;58.10
14873;DHT22;7528;48.576;19.122;2023-06-14T15:35:10;23.30;53.70
14873;DHT22;7528;48.576;19.122;2023-06-14T15:40:14;23.40;55.50
14873;DHT22;7528;48.576;19.122;2023-06-14T15:45:17;23.60;53.20
14873;DHT22;7528;48.576;19.122;2023-06-14T15:50:19;23.60;53.90
14873;DHT22;7528;48.576;19.122;2023-06-14T15:55:24;23.60;54.10
14873;DHT22;7528;48.576;19.122;2023-06-14T16:00:27;23.60;53.10
14873;DHT22;7528;48.576;19.122;2023-06-14T16:05:31;23.60;57.00
14873;DHT22;7528;48.576;19.122;2023-06-14T16:10:35;23.60;56.20
14873;DHT22;7528;48.576;19.122;2023-06-14T16:15:38;23.60;57.10
14873;DHT22;7528;48.576;19.122;2023-06-14T16:20:40;23.50;56.60
14873;DHT22;7528;48.576;19.122;2023-06-14T16:25:44;23.40;58.00
14873;DHT22;7528;48.576;19.122;2023-06-14T16:30:46;23.30;58.30
14873;DHT22;7528;48.576;19.122;2023-06-14T16:35:49;23.30;58.10
14873;DHT22;7528;48.576;19.122;2023-06-14T16:40:53;23.20;59.30
14873;DHT22;7528;48.576;19.122;2023-06-14T16:45:55;23.10;59.90
14873;DHT22;7528;48.576;19.122;2023-06-14T16:50:58;23.00;59.70
14873;DHT22;7528;48.576;19.122;2023-06-14T16:56:03;22.90;60.20
14873;DHT22;7528;48.576;19.122;2023-06-14T17:01:07;22.70;60.20
14873;DHT22;7528;48.576;19.122;2023-06-14T17:06:09;22.60;60.10
14873;DHT22;7528;48.576;19.122;2023-06-14T17:11:13;22.40;60.30
14873;DHT22;7528;48.576;19.122;2023-06-14T17:16:16;22.20;59.60
14873;DHT22;7528;48.576;19.122;2023-06-14T17:21:19;22.00;60.60
14873;DHT22;7528;48.576;19.122;2023-06-14T17:26:23;21.80;62.10
14873;DHT22;7528;48.576;19.122;2023-06-14T17:31:30;21.80;64.00
14873;DHT22;7528;48.576;19.122;2023-06-14T17:36:32;21.70;63.30
14873;DHT22;7528;48.576;19.122;2023-06-14T17:41:38;21.50;66.30
14873;DHT22;7528;48.576;19.122;2023-06-14T17:47:02;21.40;66.50
14873;DHT22;7528;48.576;19.122;2023-06-14T17:52:08;21.30;66.00
14873;DHT22;7528;48.576;19.122;2023-06-14T17:57:22;21.20;66.60
14873;DHT22;7528;48.576;19.122;2023-06-14T18:02:28;21.10;66.40
14873;DHT22;7528;48.576;19.122;2023-06-14T18:07:34;21.00;66.30
14873;DHT22;7528;48.576;19.122;2023-06-14T18:13:00;20.90;67.50
14873;DHT22;7528;48.576;19.122;2023-06-14T18:18:07;20.60;68.50
14873;DHT22;7528;48.576;19.122;2023-06-14T18:23:21;20.70;68.50
14873;DHT22;7528;48.576;19.122;2023-06-14T18:28:27;20.60;70.10
14873;DHT22;7528;48.576;19.122;2023-06-14T18:33:32;20.50;71.90
14873;DHT22;7528;48.576;19.122;2023-06-14T18:38:44;20.40;72.60
14873;DHT22;7528;48.576;19.122;2023-06-14T18:43:50;20.40;72.90
14873;DHT22;7528;48.576;19.122;2023-06-14T18:48:57;20.30;72.00
14873;DHT22;7528;48.576;19.122;2023-06-14T18:54:05;20.20;72.50
14873;DHT22;7528;48.576;19.122;2023-06-14T18:59:12;20.10;73.00
14873;DHT22;7528;48.576;19.122;2023-06-14T19:04:17;20.00;73.80
14873;DHT22;7528;48.576;19.122;2023-06-14T19:09:27;19.80;74.80
14873;DHT22;7528;48.576;19.122;2023-06-14T19:14:33;19.70;75.60
14873;DHT22;7528;48.576;19.122;2023-06-14T19:19:40;19.60;75.70
14873;DHT22;7528;48.576;19.122;2023-06-14T19:24:46;19.50;75.80
14873;DHT22;7528;48.576;19.122;2023-06-14T19:29:53;19.50;75.50
14873;DHT22;7528;48.576;19.122;2023-06-14T19:35:00;19.40;76.40
14873;DHT22;7528;48.576;19.122;2023-06-14T19:40:25;19.30;76.30
14873;DHT22;7528;48.576;19.122;2023-06-14T19:45:32;19.20;76.90
14873;DHT22;7528;48.576;19.122;2023-06-14T19:56:17;19.00;77.20
14873;DHT22;7528;48.576;19.122;2023-06-14T20:01:27;18.90;77.20
14873;DHT22;7528;48.576;19.122;2023-06-14T20:11:38;18.70;77.10
14873;DHT22;7528;48.576;19.122;2023-06-14T20:16:50;18.70;77.10
14873;DHT22;7528;48.576;19.122;2023-06-14T20:22:15;18.60;77.80
14873;DHT22;7528;48.576;19.122;2023-06-14T20:27:27;18.50;78.20
14873;DHT22;7528;48.576;19.122;2023-06-14T20:32:33;18.40;78.10
14873;DHT22;7528;48.576;19.122;2023-06-14T20:37:40;18.30;77.80
14873;DHT22;7528;48.576;19.122;2023-06-14T20:42:49;18.20;77.90
14873;DHT22;7528;48.576;19.122;2023-06-14T20:48:16;18.10;78.20
14873;DHT22;7528;48.576;19.122;2023-06-14T20:53:26;17.90;78.50
14873;DHT22;7528;48.576;19.122;2023-06-14T20:58:30;17.80;78.80
14873;DHT22;7528;48.576;19.122;2023-06-14T21:03:37;17.80;78.60
14873;DHT22;7528;48.576;19.122;2023-06-14T21:08:49;17.70;78.50
14873;DHT22;7528;48.576;19.122;2023-06-14T21:13:53;17.60;78.20
14873;DHT22;7528;48.576;19.122;2023-06-14T21:18:56;17.60;77.90
14873;DHT22;7528;48.576;19.122;2023-06-14T21:29:10;17.40;78.20
14873;DHT22;7528;48.576;19.122;2023-06-14T21:34:14;17.30;78.20
14873;DHT22;7528;48.576;19.122;2023-06-14T21:39:17;17.20;78.10
14873;DHT22;7528;48.576;19.122;2023-06-14T21:44:29;17.20;77.90
14873;DHT22;7528;48.576;19.122;2023-06-14T21:49:33;17.10;77.90
14873;DHT22;7528;48.576;19.122;2023-06-14T21:54:36;17.00;78.10
14873;DHT22;7528;48.576;19.122;2023-06-14T21:59:38;17.00;78.10
14873;DHT22;7528;48.576;19.122;2023-06-14T22:04:42;16.90;78.20
14873;DHT22;7528;48.576;19.122;2023-06-14T22:09:45;16.80;78.10
14873;DHT22;7528;48.576;19.122;2023-06-14T22:14:55;16.70;78.00
14873;DHT22;7528;48.576;19.122;2023-06-14T22:20:00;16.60;78.40
14873;DHT22;7528;48.576;19.122;2023-06-14T22:25:07;16.50;78.70
14873;DHT22;7528;48.576;19.122;2023-06-14T22:30:11;16.50;78.30
14873;DHT22;7528;48.576;19.122;2023-06-14T22:35:18;16.50;78.30
14873;DHT22;7528;48.576;19.122;2023-06-14T22:40:21;16.40;78.40
14873;DHT22;7528;48.576;19.122;2023-06-14T22:45:24;16.30;78.10
14873;DHT22;7528;48.576;19.122;2023-06-14T22:50:32;16.20;78.20
14873;DHT22;7528;48.576;19.122;2023-06-14T22:55:34;16.20;78.30
14873;DHT22;7528;48.576;19.122;2023-06-14T23:00:37;16.10;78.20
14873;DHT22;7528;48.576;19.122;2023-06-14T23:05:41;16.10;78.30
14873;DHT22;7528;48.576;19.122;2023-06-14T23:10:44;16.10;78.30
14873;DHT22;7528;48.576;19.122;2023-06-14T23:15:46;16.00;78.00
14873;DHT22;7528;48.576;19.122;2023-06-14T23:21:05;16.00;78.20
14873;DHT22;7528;48.576;19.122;2023-06-14T23:26:08;16.00;78.40
14873;DHT22;7528;48.576;19.122;2023-06-14T23:36:25;15.80;77.80
14873;DHT22;7528;48.576;19.122;2023-06-14T23:41:31;15.80;77.80
14873;DHT22;7528;48.576;19.122;2023-06-14T23:46:34;15.60;78.10
14873;DHT22;7528;48.576;19.122;2023-06-14T23:51:47;15.60;78.50
14873;DHT22;7528;48.576;19.122;2023-06-14T23:56:53;15.60;78.70
